sensor_id;sensor_type;location;lat;lon;timestamp;P1;durP1;ratioP1;P2;durP2;ratioP2
11016;SDS011;54687;50.800;6.772;2022-12-05T00:00:49;24.10;;;20.85;;
11016;SDS011;54687;50.800;6.772;2022-12-05T00:03:16;21.52;;;18.60;;
11016;SDS011;54687;50.800;6.772;2022-12-05T00:05:43;20.63;;;18.40;;
11016;SDS011;54687;50.800;6.772;2022-12-05T00:08:09;20.08;;;17.98;;
11016;SDS011;54687;50.800;6.772;2022-12-05T00:10:36;18.95;;;16.25;;
11016;SDS011;54687;50.800;6.772;2022-12-05T00:13:04;21.90;;;19.43;;
11016;SDS011;54687;50.800;6.772;2022-12-05T00:15:34;22.00;;;18.53;;
11016;SDS011;54687;50.800;6.772;2022-12-05T00:18:01;21.33;;;19.03;;
11016;SDS011;54687;50.800;6.772;2022-12-05T00:20:28;21.30;;;19.03;;
11016;SDS011;54687;50.800;6.772;2022-12-05T00:22:55;22.00;;;18.50;;
11016;SDS011;54687;50.800;6.772;2022-12-05T00:25:21;21.00;;;18.50;;
11016;SDS011;54687;50.800;6.772;2022-12-05T00:27:48;22.13;;;19.43;;
11016;SDS011;54687;50.800;6.772;2022-12-05T00:30:16;22.73;;;20.23;;
11016;SDS011;54687;50.800;6.772;2022-12-05T00:32:43;23.97;;;20.57;;
11016;SDS011;54687;50.800;6.772;2022-12-05T00:35:09;22.57;;;19.63;;
11016;SDS011;54687;50.800;6.772;2022-12-05T00:37:36;21.23;;;18.87;;
11016;SDS011;54687;50.800;6.772;2022-12-05T00:40:03;20.97;;;18.77;;
11016;SDS011;54687;50.800;6.772;2022-12-05T00:42:31;22.23;;;19.70;;
11016;SDS011;54687;50.800;6.772;2022-12-05T00:44:58;22.93;;;19.93;;
11016;SDS011;54687;50.800;6.772;2022-12-05T00:47:26;20.57;;;18.37;;
11016;SDS011;54687;50.800;6.772;2022-12-05T00:49:53;21.80;;;18.75;;
11016;SDS011;54687;50.800;6.772;2022-12-05T00:52:19;23.73;;;20.57;;
11016;SDS011;54687;50.800;6.772;2022-12-05T00:54:46;21.47;;;18.90;;
11016;SDS011;54687;50.800;6.772;2022-12-05T00:57:13;22.43;;;19.80;;
11016;SDS011;54687;50.800;6.772;2022-12-05T00:59:39;23.53;;;19.90;;
11016;SDS011;54687;50.800;6.772;2022-12-05T01:02:06;22.93;;;18.33;;
11016;SDS011;54687;50.800;6.772;2022-12-05T01:04:34;24.97;;;20.77;;
11016;SDS011;54687;50.800;6.772;2022-12-05T01:07:01;22.87;;;20.17;;
11016;SDS011;54687;50.800;6.772;2022-12-05T01:09:28;26.17;;;21.67;;
11016;SDS011;54687;50.800;6.772;2022-12-05T01:11:54;23.07;;;19.53;;
11016;SDS011;54687;50.800;6.772;2022-12-05T01:14:22;22.92;;;19.33;;
11016;SDS011;54687;50.800;6.772;2022-12-05T01:16:51;22.77;;;20.23;;
11016;SDS011;54687;50.800;6.772;2022-12-05T01:19:20;24.70;;;20.37;;
11016;SDS011;54687;50.800;6.772;2022-12-05T01:21:49;23.30;;;19.73;;
11016;SDS011;54687;50.800;6.772;2022-12-05T01:24:17;25.03;;;21.23;;
11016;SDS011;54687;50.800;6.772;2022-12-05T01:26:45;23.43;;;20.70;;
11016;SDS011;54687;50.800;6.772;2022-12-05T01:29:13;22.77;;;20.10;;
11016;SDS011;54687;50.800;6.772;2022-12-05T01:31:41;24.43;;;20.57;;
11016;SDS011;54687;50.800;6.772;2022-12-05T01:34:12;24.67;;;20.57;;
11016;SDS011;54687;50.800;6.772;2022-12-05T01:36:41;23.43;;;20.80;;
11016;SDS011;54687;50.800;6.772;2022-12-05T01:39:10;24.73;;;21.57;;
11016;SDS011;54687;50.800;6.772;2022-12-05T01:41:38;23.27;;;20.70;;
11016;SDS011;54687;50.800;6.772;2022-12-05T01:44:07;24.80;;;20.40;;
11016;SDS011;54687;50.800;6.772;2022-12-05T01:47:11;23.87;;;20.73;;
11016;SDS011;54687;50.800;6.772;2022-12-05T01:49:42;23.97;;;20.03;;
11016;SDS011;54687;50.800;6.772;2022-12-05T01:52:09;23.30;;;20.23;;
11016;SDS011;54687;50.800;6.772;2022-12-05T01:54:40;26.93;;;22.60;;
11016;SDS011;54687;50.800;6.772;2022-12-05T01:57:11;23.47;;;19.63;;
11016;SDS011;54687;50.800;6.772;2022-12-05T01:59:41;22.90;;;19.90;;
11016;SDS011;54687;50.800;6.772;2022-12-05T02:02:10;25.10;;;21.77;;
11016;SDS011;54687;50.800;6.772;2022-12-05T02:04:38;23.03;;;20.33;;
11016;SDS011;54687;50.800;6.772;2022-12-05T02:07:09;22.40;;;19.00;;
11016;SDS011;54687;50.800;6.772;2022-12-05T02:09:35;23.40;;;19.70;;
11016;SDS011;54687;50.800;6.772;2022-12-05T02:12:04;23.47;;;20.30;;
11016;SDS011;54687;50.800;6.772;2022-12-05T02:14:31;23.43;;;18.77;;
11016;SDS011;54687;50.800;6.772;2022-12-05T02:17:08;21.33;;;18.57;;
11016;SDS011;54687;50.800;6.772;2022-12-05T02:19:53;23.67;;;20.10;;
11016;SDS011;54687;50.800;6.772;2022-12-05T02:22:44;23.33;;;19.48;;
11016;SDS011;54687;50.800;6.772;2022-12-05T02:25:29;22.07;;;18.63;;
11016;SDS011;54687;50.800;6.772;2022-12-05T02:31:29;22.23;;;19.65;;
11016;SDS011;54687;50.800;6.772;2022-12-05T02:34:03;23.58;;;18.65;;
11016;SDS011;54687;50.800;6.772;2022-12-05T02:36:37;21.67;;;19.07;;
11016;SDS011;54687;50.800;6.772;2022-12-05T02:39:10;21.23;;;18.37;;
11016;SDS011;54687;50.800;6.772;2022-12-05T02:41:45;20.27;;;18.10;;
11016;SDS011;54687;50.800;6.772;2022-12-05T02:44:18;19.77;;;17.65;;
11016;SDS011;54687;50.800;6.772;2022-12-05T02:46:51;22.27;;;18.87;;
11016;SDS011;54687;50.800;6.772;2022-12-05T02:49:20;23.50;;;19.30;;
11016;SDS011;54687;50.800;6.772;2022-12-05T02:51:51;23.30;;;19.43;;
11016;SDS011;54687;50.800;6.772;2022-12-05T02:54:22;25.47;;;20.80;;
11016;SDS011;54687;50.800;6.772;2022-12-05T02:56:51;22.77;;;19.50;;
11016;SDS011;54687;50.800;6.772;2022-12-05T02:59:19;24.40;;;19.47;;
11016;SDS011;54687;50.800;6.772;2022-12-05T03:01:45;22.60;;;20.17;;
11016;SDS011;54687;50.800;6.772;2022-12-05T03:04:15;20.77;;;18.47;;
11016;SDS011;54687;50.800;6.772;2022-12-05T03:06:44;20.57;;;17.97;;
11016;SDS011;54687;50.800;6.772;2022-12-05T03:09:14;23.50;;;18.83;;
11016;SDS011;54687;50.800;6.772;2022-12-05T03:11:44;21.48;;;18.75;;
11016;SDS011;54687;50.800;6.772;2022-12-05T03:14:14;21.30;;;19.00;;
11016;SDS011;54687;50.800;6.772;2022-12-05T03:16:47;25.60;;;20.30;;
11016;SDS011;54687;50.800;6.772;2022-12-05T03:19:18;21.03;;;18.73;;
11016;SDS011;54687;50.800;6.772;2022-12-05T03:21:51;20.60;;;17.97;;
11016;SDS011;54687;50.800;6.772;2022-12-05T03:24:21;22.23;;;19.60;;
11016;SDS011;54687;50.800;6.772;2022-12-05T03:26:49;21.83;;;19.50;;
11016;SDS011;54687;50.800;6.772;2022-12-05T03:29:24;19.95;;;17.58;;
11016;SDS011;54687;50.800;6.772;2022-12-05T03:32:02;21.57;;;19.20;;
11016;SDS011;54687;50.800;6.772;2022-12-05T03:34:40;21.23;;;18.02;;
11016;SDS011;54687;50.800;6.772;2022-12-05T03:37:12;20.37;;;18.10;;
11016;SDS011;54687;50.800;6.772;2022-12-05T03:39:47;20.97;;;18.57;;
11016;SDS011;54687;50.800;6.772;2022-12-05T03:42:21;19.95;;;17.55;;
11016;SDS011;54687;50.800;6.772;2022-12-05T03:44:58;22.00;;;19.57;;
11016;SDS011;54687;50.800;6.772;2022-12-05T03:47:29;23.47;;;20.17;;
11016;SDS011;54687;50.800;6.772;2022-12-05T03:50:04;22.00;;;19.43;;
11016;SDS011;54687;50.800;6.772;2022-12-05T03:52:38;23.58;;;19.42;;
11016;SDS011;54687;50.800;6.772;2022-12-05T03:55:09;23.37;;;20.20;;
11016;SDS011;54687;50.800;6.772;2022-12-05T03:57:40;22.33;;;19.93;;
11016;SDS011;54687;50.800;6.772;2022-12-05T04:00:10;25.60;;;20.43;;
11016;SDS011;54687;50.800;6.772;2022-12-05T04:02:40;24.07;;;21.07;;
11016;SDS011;54687;50.800;6.772;2022-12-05T04:05:14;24.57;;;21.70;;
11016;SDS011;54687;50.800;6.772;2022-12-05T04:07:45;24.40;;;21.43;;
11016;SDS011;54687;50.800;6.772;2022-12-05T04:10:17;21.27;;;18.93;;
11016;SDS011;54687;50.800;6.772;2022-12-05T04:12:47;23.70;;;20.50;;
11016;SDS011;54687;50.800;6.772;2022-12-05T04:15:18;23.87;;;20.33;;
11016;SDS011;54687;50.800;6.772;2022-12-05T04:17:50;24.47;;;20.73;;
11016;SDS011;54687;50.800;6.772;2022-12-05T04:20:23;22.77;;;20.17;;
11016;SDS011;54687;50.800;6.772;2022-12-05T04:23:13;23.10;;;19.80;;
11016;SDS011;54687;50.800;6.772;2022-12-05T04:25:44;25.03;;;20.93;;
11016;SDS011;54687;50.800;6.772;2022-12-05T04:28:25;22.53;;;19.60;;
11016;SDS011;54687;50.800;6.772;2022-12-05T04:31:00;22.05;;;19.58;;
11016;SDS011;54687;50.800;6.772;2022-12-05T04:33:32;24.10;;;20.33;;
11016;SDS011;54687;50.800;6.772;2022-12-05T04:36:08;23.87;;;19.97;;
11016;SDS011;54687;50.800;6.772;2022-12-05T04:38:41;25.40;;;20.37;;
11016;SDS011;54687;50.800;6.772;2022-12-05T04:41:12;25.47;;;21.63;;
11016;SDS011;54687;50.800;6.772;2022-12-05T04:43:41;25.93;;;20.03;;
11016;SDS011;54687;50.800;6.772;2022-12-05T04:46:11;23.30;;;19.70;;
11016;SDS011;54687;50.800;6.772;2022-12-05T04:48:40;24.60;;;21.10;;
11016;SDS011;54687;50.800;6.772;2022-12-05T04:51:14;24.07;;;20.10;;
11016;SDS011;54687;50.800;6.772;2022-12-05T04:53:43;22.30;;;19.73;;
11016;SDS011;54687;50.800;6.772;2022-12-05T04:56:11;22.37;;;19.67;;
11016;SDS011;54687;50.800;6.772;2022-12-05T04:58:42;22.08;;;19.10;;
11016;SDS011;54687;50.800;6.772;2022-12-05T05:01:09;23.07;;;19.67;;
11016;SDS011;54687;50.800;6.772;2022-12-05T05:03:44;23.70;;;20.48;;
11016;SDS011;54687;50.800;6.772;2022-12-05T05:06:17;25.50;;;20.33;;
11016;SDS011;54687;50.800;6.772;2022-12-05T05:08:47;23.23;;;20.07;;
11016;SDS011;54687;50.800;6.772;2022-12-05T05:11:15;23.13;;;19.90;;
11016;SDS011;54687;50.800;6.772;2022-12-05T05:13:44;21.27;;;18.73;;
11016;SDS011;54687;50.800;6.772;2022-12-05T05:16:12;21.67;;;18.80;;
11016;SDS011;54687;50.800;6.772;2022-12-05T05:18:42;23.33;;;19.60;;
11016;SDS011;54687;50.800;6.772;2022-12-05T05:21:13;19.97;;;17.83;;
11016;SDS011;54687;50.800;6.772;2022-12-05T05:23:42;19.90;;;17.60;;
11016;SDS011;54687;50.800;6.772;2022-12-05T05:26:08;20.17;;;17.55;;
11016;SDS011;54687;50.800;6.772;2022-12-05T05:28:35;23.10;;;19.13;;
11016;SDS011;54687;50.800;6.772;2022-12-05T05:31:02;21.13;;;18.67;;
11016;SDS011;54687;50.800;6.772;2022-12-05T05:33:28;22.63;;;19.30;;
11016;SDS011;54687;50.800;6.772;2022-12-05T05:35:55;21.67;;;18.83;;
11016;SDS011;54687;50.800;6.772;2022-12-05T05:38:22;20.47;;;18.27;;
11016;SDS011;54687;50.800;6.772;2022-12-05T05:40:50;21.63;;;18.40;;
11016;SDS011;54687;50.800;6.772;2022-12-05T05:43:16;20.10;;;17.40;;
11016;SDS011;54687;50.800;6.772;2022-12-05T05:45:43;19.60;;;17.50;;
11016;SDS011;54687;50.800;6.772;2022-12-05T05:48:09;19.70;;;17.30;;
11016;SDS011;54687;50.800;6.772;2022-12-05T05:50:36;18.47;;;16.47;;
11016;SDS011;54687;50.800;6.772;2022-12-05T05:53:02;19.40;;;17.27;;
11016;SDS011;54687;50.800;6.772;2022-12-05T05:55:29;18.63;;;16.57;;
11016;SDS011;54687;50.800;6.772;2022-12-05T05:57:57;21.73;;;16.93;;
11016;SDS011;54687;50.800;6.772;2022-12-05T06:00:23;19.70;;;17.60;;
11016;SDS011;54687;50.800;6.772;2022-12-05T06:02:50;20.57;;;18.30;;
11016;SDS011;54687;50.800;6.772;2022-12-05T06:05:17;20.60;;;17.93;;
11016;SDS011;54687;50.800;6.772;2022-12-05T06:07:43;20.23;;;18.03;;
11016;SDS011;54687;50.800;6.772;2022-12-05T06:10:10;17.93;;;16.03;;
11016;SDS011;54687;50.800;6.772;2022-12-05T06:12:37;17.20;;;15.43;;
11016;SDS011;54687;50.800;6.772;2022-12-05T06:15:06;19.10;;;17.10;;
11016;SDS011;54687;50.800;6.772;2022-12-05T06:17:33;18.10;;;16.20;;
11016;SDS011;54687;50.800;6.772;2022-12-05T06:19:59;19.20;;;17.03;;
11016;SDS011;54687;50.800;6.772;2022-12-05T06:22:26;17.90;;;16.00;;
11016;SDS011;54687;50.800;6.772;2022-12-05T06:24:52;18.67;;;16.00;;
11016;SDS011;54687;50.800;6.772;2022-12-05T06:27:19;17.47;;;15.67;;
11016;SDS011;54687;50.800;6.772;2022-12-05T06:29:46;17.58;;;15.77;;
11016;SDS011;54687;50.800;6.772;2022-12-05T06:32:14;17.53;;;15.73;;
11016;SDS011;54687;50.800;6.772;2022-12-05T06:34:40;17.80;;;15.93;;
11016;SDS011;54687;50.800;6.772;2022-12-05T06:37:07;17.70;;;15.73;;
11016;SDS011;54687;50.800;6.772;2022-12-05T06:39:33;18.47;;;16.57;;
11016;SDS011;54687;50.800;6.772;2022-12-05T06:42:00;17.43;;;15.63;;
11016;SDS011;54687;50.800;6.772;2022-12-05T06:44:26;18.10;;;16.30;;
11016;SDS011;54687;50.800;6.772;2022-12-05T06:46:53;17.87;;;15.97;;
11016;SDS011;54687;50.800;6.772;2022-12-05T06:49:22;17.57;;;15.60;;
11016;SDS011;54687;50.800;6.772;2022-12-05T06:51:50;18.27;;;16.33;;
11016;SDS011;54687;50.800;6.772;2022-12-05T06:54:17;18.00;;;16.10;;
11016;SDS011;54687;50.800;6.772;2022-12-05T06:56:44;19.53;;;16.47;;
11016;SDS011;54687;50.800;6.772;2022-12-05T06:59:11;17.70;;;15.90;;
11016;SDS011;54687;50.800;6.772;2022-12-05T07:01:38;18.43;;;16.53;;
11016;SDS011;54687;50.800;6.772;2022-12-05T07:04:06;20.73;;;16.67;;
11016;SDS011;54687;50.800;6.772;2022-12-05T07:06:36;19.17;;;17.17;;
11016;SDS011;54687;50.800;6.772;2022-12-05T07:09:03;18.63;;;16.70;;
11016;SDS011;54687;50.800;6.772;2022-12-05T07:11:30;19.37;;;17.33;;
11016;SDS011;54687;50.800;6.772;2022-12-05T07:13:57;18.30;;;16.50;;
11016;SDS011;54687;50.800;6.772;2022-12-05T07:16:24;18.80;;;16.90;;
11016;SDS011;54687;50.800;6.772;2022-12-05T07:18:51;18.93;;;16.93;;
11016;SDS011;54687;50.800;6.772;2022-12-05T07:21:17;20.50;;;17.13;;
11016;SDS011;54687;50.800;6.772;2022-12-05T07:23:47;22.70;;;18.97;;
11016;SDS011;54687;50.800;6.772;2022-12-05T07:26:19;22.60;;;19.40;;
11016;SDS011;54687;50.800;6.772;2022-12-05T07:28:48;19.87;;;17.77;;
11016;SDS011;54687;50.800;6.772;2022-12-05T07:31:16;22.33;;;19.87;;
11016;SDS011;54687;50.800;6.772;2022-12-05T07:33:44;21.33;;;18.40;;
11016;SDS011;54687;50.800;6.772;2022-12-05T07:36:12;20.20;;;18.00;;
11016;SDS011;54687;50.800;6.772;2022-12-05T07:38:41;18.37;;;16.30;;
11016;SDS011;54687;50.800;6.772;2022-12-05T07:41:10;19.10;;;17.10;;
11016;SDS011;54687;50.800;6.772;2022-12-05T07:43:42;21.23;;;18.73;;
11016;SDS011;54687;50.800;6.772;2022-12-05T07:46:09;21.30;;;17.70;;
11016;SDS011;54687;50.800;6.772;2022-12-05T07:48:36;19.23;;;17.23;;
11016;SDS011;54687;50.800;6.772;2022-12-05T07:51:06;24.90;;;20.73;;
11016;SDS011;54687;50.800;6.772;2022-12-05T07:53:35;31.53;;;25.93;;
11016;SDS011;54687;50.800;6.772;2022-12-05T07:56:03;28.40;;;23.17;;
11016;SDS011;54687;50.800;6.772;2022-12-05T07:58:33;23.00;;;19.17;;
11016;SDS011;54687;50.800;6.772;2022-12-05T08:01:07;20.10;;;18.03;;
11016;SDS011;54687;50.800;6.772;2022-12-05T08:03:35;19.03;;;17.10;;
11016;SDS011;54687;50.800;6.772;2022-12-05T08:06:02;19.48;;;17.48;;
11016;SDS011;54687;50.800;6.772;2022-12-05T08:08:30;19.30;;;16.67;;
11016;SDS011;54687;50.800;6.772;2022-12-05T08:11:01;19.35;;;17.13;;
11016;SDS011;54687;50.800;6.772;2022-12-05T08:13:29;18.00;;;16.08;;
11016;SDS011;54687;50.800;6.772;2022-12-05T08:16:00;18.67;;;16.77;;
11016;SDS011;54687;50.800;6.772;2022-12-05T08:18:30;17.30;;;15.48;;
11016;SDS011;54687;50.800;6.772;2022-12-05T08:21:01;17.17;;;15.38;;
11016;SDS011;54687;50.800;6.772;2022-12-05T08:23:28;18.85;;;16.52;;
11016;SDS011;54687;50.800;6.772;2022-12-05T08:25:55;18.70;;;16.73;;
11016;SDS011;54687;50.800;6.772;2022-12-05T08:28:25;19.85;;;17.48;;
11016;SDS011;54687;50.800;6.772;2022-12-05T08:30:52;22.00;;;18.90;;
11016;SDS011;54687;50.800;6.772;2022-12-05T08:33:20;22.98;;;19.67;;
11016;SDS011;54687;50.800;6.772;2022-12-05T08:35:47;19.48;;;17.40;;
11016;SDS011;54687;50.800;6.772;2022-12-05T08:38:13;21.10;;;17.92;;
11016;SDS011;54687;50.800;6.772;2022-12-05T08:40:40;21.02;;;18.80;;
11016;SDS011;54687;50.800;6.772;2022-12-05T08:43:06;20.27;;;18.08;;
11016;SDS011;54687;50.800;6.772;2022-12-05T08:45:33;17.50;;;15.68;;
11016;SDS011;54687;50.800;6.772;2022-12-05T08:47:59;16.55;;;14.88;;
11016;SDS011;54687;50.800;6.772;2022-12-05T08:50:28;17.15;;;15.52;;
11016;SDS011;54687;50.800;6.772;2022-12-05T08:52:54;17.10;;;15.40;;
11016;SDS011;54687;50.800;6.772;2022-12-05T08:55:21;17.92;;;15.57;;
11016;SDS011;54687;50.800;6.772;2022-12-05T08:57:47;17.05;;;15.25;;
11016;SDS011;54687;50.800;6.772;2022-12-05T09:00:14;17.40;;;15.57;;
11016;SDS011;54687;50.800;6.772;2022-12-05T09:02:41;16.52;;;14.82;;
11016;SDS011;54687;50.800;6.772;2022-12-05T09:05:08;17.38;;;15.68;;
11016;SDS011;54687;50.800;6.772;2022-12-05T09:07:36;17.27;;;15.52;;
11016;SDS011;54687;50.800;6.772;2022-12-05T09:10:03;16.40;;;14.68;;
11016;SDS011;54687;50.800;6.772;2022-12-05T09:12:31;17.27;;;15.48;;
11016;SDS011;54687;50.800;6.772;2022-12-05T09:14:57;18.42;;;16.42;;
11016;SDS011;54687;50.800;6.772;2022-12-05T09:17:24;19.02;;;15.75;;
11016;SDS011;54687;50.800;6.772;2022-12-05T09:19:50;17.05;;;15.25;;
11016;SDS011;54687;50.800;6.772;2022-12-05T09:22:17;18.73;;;16.10;;
11016;SDS011;54687;50.800;6.772;2022-12-05T09:24:45;16.10;;;14.50;;
11016;SDS011;54687;50.800;6.772;2022-12-05T09:27:11;15.43;;;13.82;;
11016;SDS011;54687;50.800;6.772;2022-12-05T09:29:38;17.02;;;15.32;;
11016;SDS011;54687;50.800;6.772;2022-12-05T09:32:05;18.05;;;16.13;;
11016;SDS011;54687;50.800;6.772;2022-12-05T09:34:31;16.95;;;15.23;;
11016;SDS011;54687;50.800;6.772;2022-12-05T09:36:59;16.85;;;15.13;;
11016;SDS011;54687;50.800;6.772;2022-12-05T09:39:26;17.17;;;15.45;;
11016;SDS011;54687;50.800;6.772;2022-12-05T09:42:05;18.55;;;16.65;;
11016;SDS011;54687;50.800;6.772;2022-12-05T09:44:54;18.35;;;16.48;;
11016;SDS011;54687;50.800;6.772;2022-12-05T09:47:28;17.75;;;15.95;;
11016;SDS011;54687;50.800;6.772;2022-12-05T09:50:03;17.60;;;15.73;;
11016;SDS011;54687;50.800;6.772;2022-12-05T09:52:41;17.00;;;15.13;;
11016;SDS011;54687;50.800;6.772;2022-12-05T09:55:15;16.73;;;15.07;;
11016;SDS011;54687;50.800;6.772;2022-12-05T09:57:46;17.30;;;14.82;;
11016;SDS011;54687;50.800;6.772;2022-12-05T10:00:16;15.43;;;13.82;;
11016;SDS011;54687;50.800;6.772;2022-12-05T10:02:45;15.35;;;13.85;;
11016;SDS011;54687;50.800;6.772;2022-12-05T10:05:20;15.52;;;14.02;;
11016;SDS011;54687;50.800;6.772;2022-12-05T10:07:52;16.48;;;14.75;;
11016;SDS011;54687;50.800;6.772;2022-12-05T10:10:31;18.42;;;16.63;;
11016;SDS011;54687;50.800;6.772;2022-12-05T10:13:09;15.73;;;14.13;;
11016;SDS011;54687;50.800;6.772;2022-12-05T10:15:46;15.40;;;13.93;;
11016;SDS011;54687;50.800;6.772;2022-12-05T10:18:16;15.63;;;14.13;;
11016;SDS011;54687;50.800;6.772;2022-12-05T10:20:55;15.98;;;14.40;;
11016;SDS011;54687;50.800;6.772;2022-12-05T10:23:26;15.98;;;13.93;;
11016;SDS011;54687;50.800;6.772;2022-12-05T10:26:02;15.68;;;13.98;;
11016;SDS011;54687;50.800;6.772;2022-12-05T10:28:35;15.13;;;13.63;;
11016;SDS011;54687;50.800;6.772;2022-12-05T10:31:07;15.27;;;13.68;;
11016;SDS011;54687;50.800;6.772;2022-12-05T10:33:39;15.25;;;13.75;;
11016;SDS011;54687;50.800;6.772;2022-12-05T10:36:10;14.35;;;12.93;;
11016;SDS011;54687;50.800;6.772;2022-12-05T10:38:38;14.57;;;13.18;;
11016;SDS011;54687;50.800;6.772;2022-12-05T10:41:08;14.40;;;13.00;;
11016;SDS011;54687;50.800;6.772;2022-12-05T10:43:38;15.35;;;13.85;;
11016;SDS011;54687;50.800;6.772;2022-12-05T10:46:07;15.13;;;13.63;;
11016;SDS011;54687;50.800;6.772;2022-12-05T10:48:36;14.75;;;13.32;;
11016;SDS011;54687;50.800;6.772;2022-12-05T10:51:05;15.02;;;13.48;;
11016;SDS011;54687;50.800;6.772;2022-12-05T10:53:39;15.10;;;13.70;;
11016;SDS011;54687;50.800;6.772;2022-12-05T10:59:04;15.55;;;13.95;;
11016;SDS011;54687;50.800;6.772;2022-12-05T11:01:32;15.32;;;13.73;;
11016;SDS011;54687;50.800;6.772;2022-12-05T11:04:01;15.30;;;13.85;;
11016;SDS011;54687;50.800;6.772;2022-12-05T11:06:33;15.25;;;13.75;;
11016;SDS011;54687;50.800;6.772;2022-12-05T11:09:02;15.85;;;13.68;;
11016;SDS011;54687;50.800;6.772;2022-12-05T11:11:40;16.02;;;14.43;;
11016;SDS011;54687;50.800;6.772;2022-12-05T11:14:19;16.02;;;14.40;;
11016;SDS011;54687;50.800;6.772;2022-12-05T11:16:50;15.27;;;13.77;;
11016;SDS011;54687;50.800;6.772;2022-12-05T11:19:23;15.25;;;13.65;;
11016;SDS011;54687;50.800;6.772;2022-12-05T11:21:52;16.38;;;14.68;;
11016;SDS011;54687;50.800;6.772;2022-12-05T11:24:20;14.45;;;12.93;;
11016;SDS011;54687;50.800;6.772;2022-12-05T11:26:48;15.15;;;13.68;;
11016;SDS011;54687;50.800;6.772;2022-12-05T11:29:28;14.88;;;13.45;;
11016;SDS011;54687;50.800;6.772;2022-12-05T11:32:01;15.35;;;13.85;;
11016;SDS011;54687;50.800;6.772;2022-12-05T11:34:30;15.02;;;13.52;;
11016;SDS011;54687;50.800;6.772;2022-12-05T11:37:04;16.05;;;14.48;;
11016;SDS011;54687;50.800;6.772;2022-12-05T11:39:38;15.10;;;13.60;;
11016;SDS011;54687;50.800;6.772;2022-12-05T11:42:12;15.02;;;13.57;;
11016;SDS011;54687;50.800;6.772;2022-12-05T11:44:57;15.48;;;13.98;;
11016;SDS011;54687;50.800;6.772;2022-12-05T11:47:37;15.68;;;14.13;;
11016;SDS011;54687;50.800;6.772;2022-12-05T11:50:15;17.38;;;15.55;;
11016;SDS011;54687;50.800;6.772;2022-12-05T11:52:53;18.40;;;16.52;;
11016;SDS011;54687;50.800;6.772;2022-12-05T11:55:32;17.02;;;15.18;;
11016;SDS011;54687;50.800;6.772;2022-12-05T11:58:09;16.83;;;15.05;;
11016;SDS011;54687;50.800;6.772;2022-12-05T12:00:58;18.40;;;16.50;;
11016;SDS011;54687;50.800;6.772;2022-12-05T12:03:44;18.83;;;16.70;;
11016;SDS011;54687;50.800;6.772;2022-12-05T12:06:24;16.73;;;14.95;;
11016;SDS011;54687;50.800;6.772;2022-12-05T12:08:57;16.85;;;15.07;;
11016;SDS011;54687;50.800;6.772;2022-12-05T12:11:40;18.42;;;16.42;;
11016;SDS011;54687;50.800;6.772;2022-12-05T12:14:13;17.88;;;15.98;;
11016;SDS011;54687;50.800;6.772;2022-12-05T12:16:48;17.85;;;15.52;;
11016;SDS011;54687;50.800;6.772;2022-12-05T12:19:25;18.85;;;17.05;;
11016;SDS011;54687;50.800;6.772;2022-12-05T12:22:04;18.92;;;16.92;;
11016;SDS011;54687;50.800;6.772;2022-12-05T12:24:45;19.23;;;17.23;;
11016;SDS011;54687;50.800;6.772;2022-12-05T12:27:26;19.58;;;16.98;;
11016;SDS011;54687;50.800;6.772;2022-12-05T12:30:03;19.48;;;17.48;;
11016;SDS011;54687;50.800;6.772;2022-12-05T12:32:41;18.70;;;16.80;;
11016;SDS011;54687;50.800;6.772;2022-12-05T12:35:27;21.20;;;18.95;;
11016;SDS011;54687;50.800;6.772;2022-12-05T12:37:59;20.08;;;17.98;;
11016;SDS011;54687;50.800;6.772;2022-12-05T12:40:45;20.33;;;18.10;;
11016;SDS011;54687;50.800;6.772;2022-12-05T12:43:17;21.90;;;19.60;;
11016;SDS011;54687;50.800;6.772;2022-12-05T12:46:03;25.65;;;19.92;;
11016;SDS011;54687;50.800;6.772;2022-12-05T12:48:51;21.63;;;19.42;;
11016;SDS011;54687;50.800;6.772;2022-12-05T12:51:28;20.83;;;18.65;;
11016;SDS011;54687;50.800;6.772;2022-12-05T12:54:03;22.35;;;19.55;;
11016;SDS011;54687;50.800;6.772;2022-12-05T12:56:45;20.25;;;18.17;;
11016;SDS011;54687;50.800;6.772;2022-12-05T12:59:24;21.05;;;18.85;;
11016;SDS011;54687;50.800;6.772;2022-12-05T13:02:08;20.50;;;18.48;;
11016;SDS011;54687;50.800;6.772;2022-12-05T13:04:45;21.90;;;19.60;;
11016;SDS011;54687;50.800;6.772;2022-12-05T13:07:16;20.70;;;18.58;;
11016;SDS011;54687;50.800;6.772;2022-12-05T13:09:49;22.02;;;19.83;;
11016;SDS011;54687;50.800;6.772;2022-12-05T13:12:20;22.58;;;19.98;;
11016;SDS011;54687;50.800;6.772;2022-12-05T13:15:00;21.52;;;19.33;;
11016;SDS011;54687;50.800;6.772;2022-12-05T13:17:34;22.48;;;20.17;;
11016;SDS011;54687;50.800;6.772;2022-12-05T13:20:05;19.83;;;17.85;;
11016;SDS011;54687;50.800;6.772;2022-12-05T13:22:41;19.27;;;17.30;;
11016;SDS011;54687;50.800;6.772;2022-12-05T13:25:28;18.30;;;16.48;;
11016;SDS011;54687;50.800;6.772;2022-12-05T13:28:20;18.63;;;16.92;;
11016;SDS011;54687;50.800;6.772;2022-12-05T13:31:10;19.10;;;17.10;;
11016;SDS011;54687;50.800;6.772;2022-12-05T13:33:42;17.20;;;15.50;;
11016;SDS011;54687;50.800;6.772;2022-12-05T13:36:11;17.85;;;16.10;;
11016;SDS011;54687;50.800;6.772;2022-12-05T13:38:59;18.58;;;16.58;;
11016;SDS011;54687;50.800;6.772;2022-12-05T13:41:46;18.20;;;16.40;;
11016;SDS011;54687;50.800;6.772;2022-12-05T13:44:37;18.48;;;16.52;;
11016;SDS011;54687;50.800;6.772;2022-12-05T13:47:06;18.08;;;16.30;;
11016;SDS011;54687;50.800;6.772;2022-12-05T13:49:49;17.98;;;16.17;;
11016;SDS011;54687;50.800;6.772;2022-12-05T13:52:20;15.23;;;13.70;;
11016;SDS011;54687;50.800;6.772;2022-12-05T13:54:51;16.27;;;14.73;;
11016;SDS011;54687;50.800;6.772;2022-12-05T14:00:25;17.05;;;15.45;;
11016;SDS011;54687;50.800;6.772;2022-12-05T14:03:01;16.92;;;15.38;;
11016;SDS011;54687;50.800;6.772;2022-12-05T14:05:37;16.55;;;14.85;;
11016;SDS011;54687;50.800;6.772;2022-12-05T14:11:14;15.70;;;14.18;;
11016;SDS011;54687;50.800;6.772;2022-12-05T14:13:42;16.02;;;14.43;;
11016;SDS011;54687;50.800;6.772;2022-12-05T14:25:29;16.20;;;14.60;;
11016;SDS011;54687;50.800;6.772;2022-12-05T14:28:10;16.80;;;15.20;;
11016;SDS011;54687;50.800;6.772;2022-12-05T14:30:48;16.27;;;14.68;;
11016;SDS011;54687;50.800;6.772;2022-12-05T14:33:27;17.05;;;15.45;;
11016;SDS011;54687;50.800;6.772;2022-12-05T14:35:53;16.33;;;14.70;;
11016;SDS011;54687;50.800;6.772;2022-12-05T14:38:21;16.08;;;14.48;;
11016;SDS011;54687;50.800;6.772;2022-12-05T14:40:52;14.73;;;13.32;;
11016;SDS011;54687;50.800;6.772;2022-12-05T14:43:21;14.18;;;12.88;;
11016;SDS011;54687;50.800;6.772;2022-12-05T14:45:56;15.03;;;13.63;;
11016;SDS011;54687;50.800;6.772;2022-12-05T14:48:26;15.10;;;13.75;;
11016;SDS011;54687;50.800;6.772;2022-12-05T14:50:56;16.48;;;14.85;;
11016;SDS011;54687;50.800;6.772;2022-12-05T14:53:25;18.88;;;16.88;;
11016;SDS011;54687;50.800;6.772;2022-12-05T14:56:02;18.52;;;16.67;;
11016;SDS011;54687;50.800;6.772;2022-12-05T14:58:44;18.65;;;16.83;;
11016;SDS011;54687;50.800;6.772;2022-12-05T15:01:15;18.58;;;16.77;;
11016;SDS011;54687;50.800;6.772;2022-12-05T15:03:58;16.98;;;15.27;;
11016;SDS011;54687;50.800;6.772;2022-12-05T15:06:32;17.50;;;15.80;;